Terminal Aerodrome Forecast
Issued by NWS

Home | Current Version | Previous Version | Text Only | Print | Product List | Glossary On
Versions: 1 2 3 4 5 6 7 8 9 10 11 12 13
000
FTUS45 KRIW 051126
TAFRKS
TAF
KRKS 051126Z 0512/0612 23011KT P6SM VCSH BKN100
     FM051500 27015KT P6SM -SHRA OVC060
     FM052300 29010KT P6SM VCSH SCT060 BKN100
     FM060700 06010KT P6SM VCSH SCT020 OVC040=

USA.gov is the U.S. government's official web portal to all federal, state and local government web resources and services.